Bonita, Arizona
Current Conditions -  °F | °C
As of 8:51 PM on Tuesday 21 Oct 2014 (Local Time) from KSAD Reporting Station
Clear Clear  
Wind Chill: 66°   Ceiling: Unl
Heat Index: 66°   Visibility: 10mi
Dew Point: 54°   Wind: 7mph
Humidity: 65%   Direction: 120°ESE
Pressure: 29.95"   Gusts: NA
Location:  32.5598°N, 110.08°W
Report Text: KSAD 220351Z AUTO 12006KT 10SM CLR 19/12 A2995 RMK AO2 SLP107 T01890122
Loading
Personal Weather Stations






























Interactive Weather Map
Tropical Storm Tracking
New forecast layout! Learn more

10-Day Weather Forecast

Advertisements
Track Severe Weather on mobile